sensor_id;sensor_type;location;lat;lon;timestamp;temperature;humidity
14154;DHT22;7157;53.144;7.570;2023-09-30T00:06:37;13.80;100.44
14154;DHT22;7157;53.144;7.570;2023-09-30T00:16:41;13.67;100.38
14154;DHT22;7157;53.144;7.570;2023-09-30T00:26:44;13.68;100.83
14154;DHT22;7157;53.144;7.570;2023-09-30T00:36:49;13.73;101.03
14154;DHT22;7157;53.144;7.570;2023-09-30T00:46:52;13.67;101.03
14154;DHT22;7157;53.144;7.570;2023-09-30T00:56:57;13.74;101.07
14154;DHT22;7157;53.144;7.570;2023-09-30T01:07:02;13.66;101.26
14154;DHT22;7157;53.144;7.570;2023-09-30T01:17:08;13.56;101.06
14154;DHT22;7157;53.144;7.570;2023-09-30T01:27:14;13.43;101.20
14154;DHT22;7157;53.144;7.570;2023-09-30T01:37:20;13.41;101.31
14154;DHT22;7157;53.144;7.570;2023-09-30T01:47:24;13.36;101.64
14154;DHT22;7157;53.144;7.570;2023-09-30T01:57:27;13.40;101.41
14154;DHT22;7157;53.144;7.570;2023-09-30T02:07:31;13.41;101.67
14154;DHT22;7157;53.144;7.570;2023-09-30T02:17:33;13.40;101.85
14154;DHT22;7157;53.144;7.570;2023-09-30T02:27:38;13.29;102.18
14154;DHT22;7157;53.144;7.570;2023-09-30T02:37:43;13.31;102.06
14154;DHT22;7157;53.144;7.570;2023-09-30T02:47:47;13.26;102.23
14154;DHT22;7157;53.144;7.570;2023-09-30T02:57:50;13.31;102.23
14154;DHT22;7157;53.144;7.570;2023-09-30T03:07:54;13.30;102.32
14154;DHT22;7157;53.144;7.570;2023-09-30T03:17:57;13.39;102.22
14154;DHT22;7157;53.144;7.570;2023-09-30T03:28:03;13.32;102.06
14154;DHT22;7157;53.144;7.570;2023-09-30T03:38:07;13.35;102.29
14154;DHT22;7157;53.144;7.570;2023-09-30T03:48:12;13.44;102.18
14154;DHT22;7157;53.144;7.570;2023-09-30T03:58:15;13.36;102.23
14154;DHT22;7157;53.144;7.570;2023-09-30T04:08:21;13.32;102.35
14154;DHT22;7157;53.144;7.570;2023-09-30T04:18:24;13.22;102.40
14154;DHT22;7157;53.144;7.570;2023-09-30T04:28:29;13.10;102.86
14154;DHT22;7157;53.144;7.570;2023-09-30T04:38:32;13.12;102.79
14154;DHT22;7157;53.144;7.570;2023-09-30T04:48:36;13.12;102.66
14154;DHT22;7157;53.144;7.570;2023-09-30T04:58:38;13.00;102.89
14154;DHT22;7157;53.144;7.570;2023-09-30T05:08:43;13.00;102.91
14154;DHT22;7157;53.144;7.570;2023-09-30T05:18:45;12.96;102.73
14154;DHT22;7157;53.144;7.570;2023-09-30T05:28:51;12.95;102.61
14154;DHT22;7157;53.144;7.570;2023-09-30T05:38:54;12.89;102.86
14154;DHT22;7157;53.144;7.570;2023-09-30T05:48:59;12.85;102.97
14154;DHT22;7157;53.144;7.570;2023-09-30T05:59:02;12.92;102.84
14154;DHT22;7157;53.144;7.570;2023-09-30T06:09:07;12.92;103.25
14154;DHT22;7157;53.144;7.570;2023-09-30T06:19:10;13.06;103.15
14154;DHT22;7157;53.144;7.570;2023-09-30T06:29:14;13.19;103.05
14154;DHT22;7157;53.144;7.570;2023-09-30T06:39:17;13.18;103.10
14154;DHT22;7157;53.144;7.570;2023-09-30T06:49:22;13.37;102.91
14154;DHT22;7157;53.144;7.570;2023-09-30T06:59:25;13.46;102.63
14154;DHT22;7157;53.144;7.570;2023-09-30T07:09:29;13.62;102.47
14154;DHT22;7157;53.144;7.570;2023-09-30T07:19:32;13.79;102.41
14154;DHT22;7157;53.144;7.570;2023-09-30T07:29:36;13.99;102.06
14154;DHT22;7157;53.144;7.570;2023-09-30T07:39:39;14.35;101.37
14154;DHT22;7157;53.144;7.570;2023-09-30T07:49:43;14.60;101.06
14154;DHT22;7157;53.144;7.570;2023-09-30T07:59:45;14.94;100.44
14154;DHT22;7157;53.144;7.570;2023-09-30T08:09:50;15.32;99.80
14154;DHT22;7157;53.144;7.570;2023-09-30T08:19:52;15.48;98.93
14154;DHT22;7157;53.144;7.570;2023-09-30T08:29:56;16.05;98.03
14154;DHT22;7157;53.144;7.570;2023-09-30T08:39:59;16.45;97.18
14154;DHT22;7157;53.144;7.570;2023-09-30T08:50:05;16.81;95.68
14154;DHT22;7157;53.144;7.570;2023-09-30T09:00:13;17.14;94.34
14154;DHT22;7157;53.144;7.570;2023-09-30T09:10:17;17.56;91.77
14154;DHT22;7157;53.144;7.570;2023-09-30T09:20:22;17.84;90.08
14154;DHT22;7157;53.144;7.570;2023-09-30T09:30:27;18.29;88.23
14154;DHT22;7157;53.144;7.570;2023-09-30T09:40:31;18.67;86.82
14154;DHT22;7157;53.144;7.570;2023-09-30T09:50:35;19.01;83.86
14154;DHT22;7157;53.144;7.570;2023-09-30T10:00:40;19.16;81.12
14154;DHT22;7157;53.144;7.570;2023-09-30T10:10:45;19.54;81.05
14154;DHT22;7157;53.144;7.570;2023-09-30T10:20:48;19.66;78.75
14154;DHT22;7157;53.144;7.570;2023-09-30T10:31:13;19.65;77.98
14154;DHT22;7157;53.144;7.570;2023-09-30T10:41:50;19.96;75.99
14154;DHT22;7157;53.144;7.570;2023-09-30T10:51:56;20.30;75.75
14154;DHT22;7157;53.144;7.570;2023-09-30T11:01:59;20.47;74.21
14154;DHT22;7157;53.144;7.570;2023-09-30T11:12:13;20.79;71.63
14154;DHT22;7157;53.144;7.570;2023-09-30T11:22:17;20.74;71.80
14154;DHT22;7157;53.144;7.570;2023-09-30T11:32:26;20.75;71.11
14154;DHT22;7157;53.144;7.570;2023-09-30T11:42:31;19.60;75.36
14154;DHT22;7157;53.144;7.570;2023-09-30T11:52:36;19.30;76.55
14154;DHT22;7157;53.144;7.570;2023-09-30T12:02:41;19.18;77.79
14154;DHT22;7157;53.144;7.570;2023-09-30T12:12:46;22.46;68.01
14154;DHT22;7157;53.144;7.570;2023-09-30T12:22:49;21.39;68.83
14154;DHT22;7157;53.144;7.570;2023-09-30T12:32:54;19.77;74.80
14154;DHT22;7157;53.144;7.570;2023-09-30T12:42:58;21.07;70.66
14154;DHT22;7157;53.144;7.570;2023-09-30T12:53:02;20.87;68.47
14154;DHT22;7157;53.144;7.570;2023-09-30T13:03:05;21.02;68.51
14154;DHT22;7157;53.144;7.570;2023-09-30T13:13:10;21.50;65.51
14154;DHT22;7157;53.144;7.570;2023-09-30T13:23:13;21.22;65.14
14154;DHT22;7157;53.144;7.570;2023-09-30T13:33:20;21.96;61.32
14154;DHT22;7157;53.144;7.570;2023-09-30T13:43:23;21.88;61.37
14154;DHT22;7157;53.144;7.570;2023-09-30T13:53:27;21.06;62.31
14154;DHT22;7157;53.144;7.570;2023-09-30T14:03:30;20.34;65.58
14154;DHT22;7157;53.144;7.570;2023-09-30T14:13:34;19.68;67.82
14154;DHT22;7157;53.144;7.570;2023-09-30T14:23:37;19.29;69.33
14154;DHT22;7157;53.144;7.570;2023-09-30T14:33:42;19.12;72.67
14154;DHT22;7157;53.144;7.570;2023-09-30T14:43:45;19.61;72.57
14154;DHT22;7157;53.144;7.570;2023-09-30T14:53:49;19.90;69.39
14154;DHT22;7157;53.144;7.570;2023-09-30T15:03:52;19.51;68.07
14154;DHT22;7157;53.144;7.570;2023-09-30T15:13:57;19.38;67.31
14154;DHT22;7157;53.144;7.570;2023-09-30T15:23:59;19.28;68.75
14154;DHT22;7157;53.144;7.570;2023-09-30T15:34:06;19.14;70.03
14154;DHT22;7157;53.144;7.570;2023-09-30T15:44:09;19.05;71.81
14154;DHT22;7157;53.144;7.570;2023-09-30T15:54:13;18.83;73.29
14154;DHT22;7157;53.144;7.570;2023-09-30T16:04:16;18.62;74.48
14154;DHT22;7157;53.144;7.570;2023-09-30T16:14:20;18.52;76.15
14154;DHT22;7157;53.144;7.570;2023-09-30T16:24:23;18.35;77.50
14154;DHT22;7157;53.144;7.570;2023-09-30T16:34:27;18.06;79.50
14154;DHT22;7157;53.144;7.570;2023-09-30T16:44:30;17.85;80.96
14154;DHT22;7157;53.144;7.570;2023-09-30T16:54:34;17.75;81.81
14154;DHT22;7157;53.144;7.570;2023-09-30T17:04:41;17.44;83.75
14154;DHT22;7157;53.144;7.570;2023-09-30T17:14:45;17.32;85.44
14154;DHT22;7157;53.144;7.570;2023-09-30T17:24:48;17.21;86.93
14154;DHT22;7157;53.144;7.570;2023-09-30T17:34:52;17.17;87.56
14154;DHT22;7157;53.144;7.570;2023-09-30T17:44:55;17.10;88.64
14154;DHT22;7157;53.144;7.570;2023-09-30T17:54:59;17.05;89.43
14154;DHT22;7157;53.144;7.570;2023-09-30T18:05:03;17.00;90.13
14154;DHT22;7157;53.144;7.570;2023-09-30T18:15:09;16.98;90.33
14154;DHT22;7157;53.144;7.570;2023-09-30T18:25:13;16.80;91.18
14154;DHT22;7157;53.144;7.570;2023-09-30T18:35:18;16.78;92.01
14154;DHT22;7157;53.144;7.570;2023-09-30T18:45:21;16.79;92.63
14154;DHT22;7157;53.144;7.570;2023-09-30T18:55:25;16.85;92.66
14154;DHT22;7157;53.144;7.570;2023-09-30T19:05:28;16.90;92.45
14154;DHT22;7157;53.144;7.570;2023-09-30T19:15:33;16.88;92.43
14154;DHT22;7157;53.144;7.570;2023-09-30T19:25:36;16.90;91.69
14154;DHT22;7157;53.144;7.570;2023-09-30T19:35:40;16.89;90.81
14154;DHT22;7157;53.144;7.570;2023-09-30T19:45:43;16.86;91.01
14154;DHT22;7157;53.144;7.570;2023-09-30T19:55:47;16.81;91.41
14154;DHT22;7157;53.144;7.570;2023-09-30T20:05:52;16.72;92.10
14154;DHT22;7157;53.144;7.570;2023-09-30T20:15:56;16.65;92.69
14154;DHT22;7157;53.144;7.570;2023-09-30T20:26:00;16.60;93.14
14154;DHT22;7157;53.144;7.570;2023-09-30T20:36:05;16.56;93.58
14154;DHT22;7157;53.144;7.570;2023-09-30T20:46:08;16.52;93.68
14154;DHT22;7157;53.144;7.570;2023-09-30T20:56:13;16.55;93.41
14154;DHT22;7157;53.144;7.570;2023-09-30T21:06:16;16.58;93.13
14154;DHT22;7157;53.144;7.570;2023-09-30T21:16:21;16.58;92.93
14154;DHT22;7157;53.144;7.570;2023-09-30T21:26:24;16.63;92.64
14154;DHT22;7157;53.144;7.570;2023-09-30T21:36:28;16.60;92.95
14154;DHT22;7157;53.144;7.570;2023-09-30T21:46:30;16.52;93.01
14154;DHT22;7157;53.144;7.570;2023-09-30T21:56:35;16.46;93.27
14154;DHT22;7157;53.144;7.570;2023-09-30T22:06:38;16.37;93.68
14154;DHT22;7157;53.144;7.570;2023-09-30T22:16:42;16.35;93.77
14154;DHT22;7157;53.144;7.570;2023-09-30T22:26:45;16.37;93.88
14154;DHT22;7157;53.144;7.570;2023-09-30T22:36:49;16.25;94.31
14154;DHT22;7157;53.144;7.570;2023-09-30T22:46:52;16.17;95.07
14154;DHT22;7157;53.144;7.570;2023-09-30T22:56:56;16.12;95.30
14154;DHT22;7157;53.144;7.570;2023-09-30T23:07:00;16.12;95.58
14154;DHT22;7157;53.144;7.570;2023-09-30T23:17:07;16.06;95.94
14154;DHT22;7157;53.144;7.570;2023-09-30T23:37:30;16.10;95.95
14154;DHT22;7157;53.144;7.570;2023-09-30T23:47:32;16.10;95.95
14154;DHT22;7157;53.144;7.570;2023-09-30T23:57:53;16.10;95.82
